sensor_id;sensor_type;location;lat;lon;timestamp;P1;durP1;ratioP1;P2;durP2;ratioP2
7247;SDS011;3665;51.034;13.642;2023-06-24T00:05:19;14.30;;;11.63;;
7247;SDS011;3665;51.034;13.642;2023-06-24T00:10:06;16.40;;;11.10;;
7247;SDS011;3665;51.034;13.642;2023-06-24T00:14:53;14.97;;;11.33;;
7247;SDS011;3665;51.034;13.642;2023-06-24T00:19:44;12.77;;;11.20;;
7247;SDS011;3665;51.034;13.642;2023-06-24T00:24:30;13.83;;;12.20;;
7247;SDS011;3665;51.034;13.642;2023-06-24T00:29:17;16.47;;;12.93;;
7247;SDS011;3665;51.034;13.642;2023-06-24T00:34:05;16.60;;;13.97;;
7247;SDS011;3665;51.034;13.642;2023-06-24T00:38:55;15.60;;;13.20;;
7247;SDS011;3665;51.034;13.642;2023-06-24T00:43:41;21.37;;;16.07;;
7247;SDS011;3665;51.034;13.642;2023-06-24T00:48:25;18.77;;;15.33;;
7247;SDS011;3665;51.034;13.642;2023-06-24T00:53:15;19.33;;;16.70;;
7247;SDS011;3665;51.034;13.642;2023-06-24T00:58:08;19.33;;;16.67;;
7247;SDS011;3665;51.034;13.642;2023-06-24T01:02:55;26.73;;;16.60;;
7247;SDS011;3665;51.034;13.642;2023-06-24T01:07:41;25.43;;;17.47;;
7247;SDS011;3665;51.034;13.642;2023-06-24T01:12:29;24.10;;;16.97;;
7247;SDS011;3665;51.034;13.642;2023-06-24T01:22:37;23.40;;;18.00;;
7247;SDS011;3665;51.034;13.642;2023-06-24T01:27:52;21.17;;;18.43;;
7247;SDS011;3665;51.034;13.642;2023-06-24T01:33:04;22.23;;;18.47;;
7247;SDS011;3665;51.034;13.642;2023-06-24T01:37:51;27.70;;;18.90;;
7247;SDS011;3665;51.034;13.642;2023-06-24T01:42:38;21.00;;;18.40;;
7247;SDS011;3665;51.034;13.642;2023-06-24T01:47:25;27.60;;;19.87;;
7247;SDS011;3665;51.034;13.642;2023-06-24T01:52:14;24.17;;;19.30;;
7247;SDS011;3665;51.034;13.642;2023-06-24T01:57:00;25.30;;;20.43;;
7247;SDS011;3665;51.034;13.642;2023-06-24T02:01:50;25.27;;;19.43;;
7247;SDS011;3665;51.034;13.642;2023-06-24T02:06:37;30.27;;;21.00;;
7247;SDS011;3665;51.034;13.642;2023-06-24T02:16:29;30.13;;;21.40;;
7247;SDS011;3665;51.034;13.642;2023-06-24T02:21:19;31.37;;;20.60;;
7247;SDS011;3665;51.034;13.642;2023-06-24T02:26:06;25.70;;;21.03;;
7247;SDS011;3665;51.034;13.642;2023-06-24T02:36:32;27.20;;;20.67;;
7247;SDS011;3665;51.034;13.642;2023-06-24T02:41:16;30.60;;;20.47;;
7247;SDS011;3665;51.034;13.642;2023-06-24T02:46:00;25.07;;;20.27;;
7247;SDS011;3665;51.034;13.642;2023-06-24T02:50:45;22.60;;;18.90;;
7247;SDS011;3665;51.034;13.642;2023-06-24T02:55:41;21.67;;;18.70;;
7247;SDS011;3665;51.034;13.642;2023-06-24T03:00:31;26.23;;;20.73;;
7247;SDS011;3665;51.034;13.642;2023-06-24T03:05:25;24.53;;;19.50;;
7247;SDS011;3665;51.034;13.642;2023-06-24T03:10:22;25.63;;;19.80;;
7247;SDS011;3665;51.034;13.642;2023-06-24T03:20:10;23.23;;;18.50;;
7247;SDS011;3665;51.034;13.642;2023-06-24T03:25:02;24.60;;;19.30;;
7247;SDS011;3665;51.034;13.642;2023-06-24T03:29:52;20.10;;;17.73;;
7247;SDS011;3665;51.034;13.642;2023-06-24T03:39:41;22.47;;;18.43;;
7247;SDS011;3665;51.034;13.642;2023-06-24T03:44:25;22.90;;;17.57;;
7247;SDS011;3665;51.034;13.642;2023-06-24T03:49:11;21.20;;;17.40;;
7247;SDS011;3665;51.034;13.642;2023-06-24T03:54:05;21.40;;;17.97;;
7247;SDS011;3665;51.034;13.642;2023-06-24T03:58:49;21.87;;;17.77;;
7247;SDS011;3665;51.034;13.642;2023-06-24T04:03:39;21.93;;;16.70;;
7247;SDS011;3665;51.034;13.642;2023-06-24T04:08:30;18.93;;;15.87;;
7247;SDS011;3665;51.034;13.642;2023-06-24T04:18:22;20.00;;;15.87;;
7247;SDS011;3665;51.034;13.642;2023-06-24T04:23:06;20.50;;;14.57;;
7247;SDS011;3665;51.034;13.642;2023-06-24T04:27:58;17.27;;;13.13;;
7247;SDS011;3665;51.034;13.642;2023-06-24T04:32:45;16.17;;;14.33;;
7247;SDS011;3665;51.034;13.642;2023-06-24T04:37:30;18.17;;;15.20;;
7247;SDS011;3665;51.034;13.642;2023-06-24T04:42:17;19.03;;;15.97;;
7247;SDS011;3665;51.034;13.642;2023-06-24T04:47:04;21.57;;;18.20;;
7247;SDS011;3665;51.034;13.642;2023-06-24T04:51:59;21.63;;;19.37;;
7247;SDS011;3665;51.034;13.642;2023-06-24T04:56:43;25.53;;;19.47;;
7247;SDS011;3665;51.034;13.642;2023-06-24T05:01:33;21.97;;;19.50;;
7247;SDS011;3665;51.034;13.642;2023-06-24T05:06:16;21.40;;;19.17;;
7247;SDS011;3665;51.034;13.642;2023-06-24T05:11:10;23.53;;;21.17;;
7247;SDS011;3665;51.034;13.642;2023-06-24T05:15:54;28.07;;;21.33;;
7247;SDS011;3665;51.034;13.642;2023-06-24T05:20:59;26.40;;;21.00;;
7247;SDS011;3665;51.034;13.642;2023-06-24T05:25:42;24.37;;;21.07;;
7247;SDS011;3665;51.034;13.642;2023-06-24T05:30:40;24.27;;;21.27;;
7247;SDS011;3665;51.034;13.642;2023-06-24T05:35:24;26.03;;;21.13;;
7247;SDS011;3665;51.034;13.642;2023-06-24T05:40:10;22.50;;;19.80;;
7247;SDS011;3665;51.034;13.642;2023-06-24T05:44:57;23.23;;;20.67;;
7247;SDS011;3665;51.034;13.642;2023-06-24T05:49:51;21.73;;;19.40;;
7247;SDS011;3665;51.034;13.642;2023-06-24T05:54:38;21.53;;;19.40;;
7247;SDS011;3665;51.034;13.642;2023-06-24T05:59:23;23.47;;;19.57;;
7247;SDS011;3665;51.034;13.642;2023-06-24T06:04:14;28.10;;;20.03;;
7247;SDS011;3665;51.034;13.642;2023-06-24T06:09:01;28.60;;;20.33;;
7247;SDS011;3665;51.034;13.642;2023-06-24T06:13:45;21.13;;;18.80;;
7247;SDS011;3665;51.034;13.642;2023-06-24T06:18:36;20.40;;;18.20;;
7247;SDS011;3665;51.034;13.642;2023-06-24T06:23:26;22.97;;;17.47;;
7247;SDS011;3665;51.034;13.642;2023-06-24T06:28:14;18.37;;;16.37;;
7247;SDS011;3665;51.034;13.642;2023-06-24T06:32:57;21.00;;;17.00;;
7247;SDS011;3665;51.034;13.642;2023-06-24T06:37:44;20.43;;;16.73;;
7247;SDS011;3665;51.034;13.642;2023-06-24T06:42:31;18.90;;;16.93;;
7247;SDS011;3665;51.034;13.642;2023-06-24T06:47:27;19.03;;;15.43;;
7247;SDS011;3665;51.034;13.642;2023-06-24T06:52:13;21.13;;;15.10;;
7247;SDS011;3665;51.034;13.642;2023-06-24T06:57:00;18.93;;;14.90;;
7247;SDS011;3665;51.034;13.642;2023-06-24T07:01:49;17.00;;;14.53;;
7247;SDS011;3665;51.034;13.642;2023-06-24T07:06:47;15.93;;;14.33;;
7247;SDS011;3665;51.034;13.642;2023-06-24T07:11:43;14.57;;;13.00;;
7247;SDS011;3665;51.034;13.642;2023-06-24T07:16:29;12.87;;;11.57;;
7247;SDS011;3665;51.034;13.642;2023-06-24T07:21:19;11.80;;;10.47;;
7247;SDS011;3665;51.034;13.642;2023-06-24T07:26:14;11.43;;;10.43;;
7247;SDS011;3665;51.034;13.642;2023-06-24T07:31:00;12.77;;;11.13;;
7247;SDS011;3665;51.034;13.642;2023-06-24T07:35:44;10.37;;;9.30;;
7247;SDS011;3665;51.034;13.642;2023-06-24T07:40:31;10.93;;;9.57;;
7247;SDS011;3665;51.034;13.642;2023-06-24T07:45:19;10.77;;;9.77;;
7247;SDS011;3665;51.034;13.642;2023-06-24T07:50:05;10.47;;;9.47;;
7247;SDS011;3665;51.034;13.642;2023-06-24T07:54:53;11.47;;;10.27;;
7247;SDS011;3665;51.034;13.642;2023-06-24T07:59:46;10.83;;;9.73;;
7247;SDS011;3665;51.034;13.642;2023-06-24T08:04:31;9.87;;;8.70;;
7247;SDS011;3665;51.034;13.642;2023-06-24T08:09:18;8.57;;;7.67;;
7247;SDS011;3665;51.034;13.642;2023-06-24T08:14:02;9.00;;;6.93;;
7247;SDS011;3665;51.034;13.642;2023-06-24T08:18:54;9.13;;;6.80;;
7247;SDS011;3665;51.034;13.642;2023-06-24T08:23:42;7.40;;;5.60;;
7247;SDS011;3665;51.034;13.642;2023-06-24T08:28:25;6.50;;;5.83;;
7247;SDS011;3665;51.034;13.642;2023-06-24T08:33:17;6.37;;;5.63;;
7247;SDS011;3665;51.034;13.642;2023-06-24T08:38:10;6.73;;;5.27;;
7247;SDS011;3665;51.034;13.642;2023-06-24T08:42:56;8.17;;;5.10;;
7247;SDS011;3665;51.034;13.642;2023-06-24T08:47:42;6.43;;;5.30;;
7247;SDS011;3665;51.034;13.642;2023-06-24T08:52:26;7.57;;;4.63;;
7247;SDS011;3665;51.034;13.642;2023-06-24T08:57:20;8.77;;;5.47;;
7247;SDS011;3665;51.034;13.642;2023-06-24T09:02:06;6.17;;;4.80;;
7247;SDS011;3665;51.034;13.642;2023-06-24T09:06:55;6.00;;;5.40;;
7247;SDS011;3665;51.034;13.642;2023-06-24T09:11:45;8.00;;;4.47;;
7247;SDS011;3665;51.034;13.642;2023-06-24T09:16:40;7.27;;;4.30;;
7247;SDS011;3665;51.034;13.642;2023-06-24T09:21:35;5.47;;;4.87;;
7247;SDS011;3665;51.034;13.642;2023-06-24T09:26:22;5.57;;;5.07;;
7247;SDS011;3665;51.034;13.642;2023-06-24T09:31:11;5.30;;;4.90;;
7247;SDS011;3665;51.034;13.642;2023-06-24T09:36:17;6.23;;;5.20;;
7247;SDS011;3665;51.034;13.642;2023-06-24T09:46:07;5.65;;;4.22;;
7247;SDS011;3665;51.034;13.642;2023-06-24T09:50:57;5.63;;;4.88;;
7247;SDS011;3665;51.034;13.642;2023-06-24T09:55:50;5.50;;;5.00;;
7247;SDS011;3665;51.034;13.642;2023-06-24T10:00:49;8.32;;;4.65;;
7247;SDS011;3665;51.034;13.642;2023-06-24T10:05:33;5.10;;;4.53;;
7247;SDS011;3665;51.034;13.642;2023-06-24T10:10:23;5.47;;;4.97;;
7247;SDS011;3665;51.034;13.642;2023-06-24T10:15:10;6.15;;;4.38;;
7247;SDS011;3665;51.034;13.642;2023-06-24T10:30:23;7.22;;;6.00;;
7247;SDS011;3665;51.034;13.642;2023-06-24T10:35:21;5.30;;;4.80;;
7247;SDS011;3665;51.034;13.642;2023-06-24T10:40:13;6.45;;;5.68;;
7247;SDS011;3665;51.034;13.642;2023-06-24T10:45:35;7.57;;;4.72;;
7247;SDS011;3665;51.034;13.642;2023-06-24T10:50:19;5.63;;;4.47;;
7247;SDS011;3665;51.034;13.642;2023-06-24T10:55:09;5.03;;;4.53;;
7247;SDS011;3665;51.034;13.642;2023-06-24T11:00:01;4.93;;;4.43;;
7247;SDS011;3665;51.034;13.642;2023-06-24T11:04:47;5.68;;;4.75;;
7247;SDS011;3665;51.034;13.642;2023-06-24T11:09:34;5.43;;;4.82;;
7247;SDS011;3665;51.034;13.642;2023-06-24T11:14:27;5.20;;;4.65;;
7247;SDS011;3665;51.034;13.642;2023-06-24T11:19:12;6.75;;;5.00;;
7247;SDS011;3665;51.034;13.642;2023-06-24T11:24:00;6.82;;;4.80;;
7247;SDS011;3665;51.034;13.642;2023-06-24T11:28:46;6.07;;;4.60;;
7247;SDS011;3665;51.034;13.642;2023-06-24T11:33:34;5.50;;;5.07;;
7247;SDS011;3665;51.034;13.642;2023-06-24T11:38:22;5.38;;;4.88;;
7247;SDS011;3665;51.034;13.642;2023-06-24T11:43:12;5.25;;;4.75;;
7247;SDS011;3665;51.034;13.642;2023-06-24T11:48:01;6.55;;;4.90;;
7247;SDS011;3665;51.034;13.642;2023-06-24T11:53:06;5.80;;;5.18;;
7247;SDS011;3665;51.034;13.642;2023-06-24T11:57:53;5.38;;;4.93;;
7247;SDS011;3665;51.034;13.642;2023-06-24T12:02:39;5.28;;;3.90;;
7247;SDS011;3665;51.034;13.642;2023-06-24T12:07:28;5.13;;;4.32;;
7247;SDS011;3665;51.034;13.642;2023-06-24T12:12:13;4.90;;;3.80;;
7247;SDS011;3665;51.034;13.642;2023-06-24T12:17:03;4.85;;;3.97;;
7247;SDS011;3665;51.034;13.642;2023-06-24T12:21:49;4.55;;;4.13;;
7247;SDS011;3665;51.034;13.642;2023-06-24T12:26:39;4.53;;;4.15;;
7247;SDS011;3665;51.034;13.642;2023-06-24T12:31:23;4.57;;;4.18;;
7247;SDS011;3665;51.034;13.642;2023-06-24T12:36:13;4.80;;;3.83;;
7247;SDS011;3665;51.034;13.642;2023-06-24T12:41:04;4.82;;;4.20;;
7247;SDS011;3665;51.034;13.642;2023-06-24T12:45:49;3.97;;;3.60;;
7247;SDS011;3665;51.034;13.642;2023-06-24T12:50:37;6.90;;;4.35;;
7247;SDS011;3665;51.034;13.642;2023-06-24T12:55:26;4.68;;;4.18;;
7247;SDS011;3665;51.034;13.642;2023-06-24T13:00:24;6.80;;;4.47;;
7247;SDS011;3665;51.034;13.642;2023-06-24T13:05:17;4.20;;;3.90;;
7247;SDS011;3665;51.034;13.642;2023-06-24T13:10:10;4.30;;;3.80;;
7247;SDS011;3665;51.034;13.642;2023-06-24T13:14:56;6.25;;;4.38;;
7247;SDS011;3665;51.034;13.642;2023-06-24T13:19:42;4.03;;;3.65;;
7247;SDS011;3665;51.034;13.642;2023-06-24T13:24:32;4.63;;;4.22;;
7247;SDS011;3665;51.034;13.642;2023-06-24T13:29:19;4.20;;;3.90;;
7247;SDS011;3665;51.034;13.642;2023-06-24T13:39:11;5.55;;;3.50;;
7247;SDS011;3665;51.034;13.642;2023-06-24T13:43:58;3.38;;;3.08;;
7247;SDS011;3665;51.034;13.642;2023-06-24T13:48:48;4.60;;;3.40;;
7247;SDS011;3665;51.034;13.642;2023-06-24T13:58:58;6.70;;;3.78;;
7247;SDS011;3665;51.034;13.642;2023-06-24T14:03:44;3.75;;;3.45;;
7247;SDS011;3665;51.034;13.642;2023-06-24T14:08:30;4.40;;;4.00;;
7247;SDS011;3665;51.034;13.642;2023-06-24T14:13:18;5.60;;;3.65;;
7247;SDS011;3665;51.034;13.642;2023-06-24T14:18:07;4.75;;;3.30;;
7247;SDS011;3665;51.034;13.642;2023-06-24T14:22:54;5.25;;;3.65;;
7247;SDS011;3665;51.034;13.642;2023-06-24T14:27:44;3.88;;;3.45;;
7247;SDS011;3665;51.034;13.642;2023-06-24T14:32:30;6.10;;;3.63;;
7247;SDS011;3665;51.034;13.642;2023-06-24T14:37:17;4.25;;;3.72;;
7247;SDS011;3665;51.034;13.642;2023-06-24T14:42:07;4.15;;;3.53;;
7247;SDS011;3665;51.034;13.642;2023-06-24T14:46:54;3.78;;;3.50;;
7247;SDS011;3665;51.034;13.642;2023-06-24T14:51:51;3.55;;;3.17;;
7247;SDS011;3665;51.034;13.642;2023-06-24T14:56:44;3.92;;;3.55;;
7247;SDS011;3665;51.034;13.642;2023-06-24T15:01:33;4.38;;;3.50;;
7247;SDS011;3665;51.034;13.642;2023-06-24T15:06:17;4.00;;;3.40;;
7247;SDS011;3665;51.034;13.642;2023-06-24T15:11:14;3.97;;;3.30;;
7247;SDS011;3665;51.034;13.642;2023-06-24T15:15:58;4.55;;;3.78;;
7247;SDS011;3665;51.034;13.642;2023-06-24T15:20:51;6.00;;;3.83;;
7247;SDS011;3665;51.034;13.642;2023-06-24T15:25:35;3.63;;;3.30;;
7247;SDS011;3665;51.034;13.642;2023-06-24T15:30:21;5.03;;;3.78;;
7247;SDS011;3665;51.034;13.642;2023-06-24T15:35:06;5.68;;;3.70;;
7247;SDS011;3665;51.034;13.642;2023-06-24T15:39:53;3.58;;;3.28;;
7247;SDS011;3665;51.034;13.642;2023-06-24T15:44:41;4.68;;;3.72;;
7247;SDS011;3665;51.034;13.642;2023-06-24T15:49:30;4.05;;;3.65;;
7247;SDS011;3665;51.034;13.642;2023-06-24T16:37:58;4.72;;;4.10;;
7247;SDS011;3665;51.034;13.642;2023-06-24T16:42:43;4.20;;;3.90;;
7247;SDS011;3665;51.034;13.642;2023-06-24T16:47:29;4.47;;;4.10;;
7247;SDS011;3665;51.034;13.642;2023-06-24T16:52:20;4.80;;;3.75;;
7247;SDS011;3665;51.034;13.642;2023-06-24T16:57:08;3.95;;;3.20;;
7247;SDS011;3665;51.034;13.642;2023-06-24T17:04:50;4.65;;;3.33;;
7247;SDS011;3665;51.034;13.642;2023-06-24T17:09:34;4.82;;;3.47;;
7247;SDS011;3665;51.034;13.642;2023-06-24T17:14:22;3.55;;;3.25;;
7247;SDS011;3665;51.034;13.642;2023-06-24T17:19:18;3.53;;;3.20;;
7247;SDS011;3665;51.034;13.642;2023-06-24T17:24:04;4.60;;;3.90;;
7247;SDS011;3665;51.034;13.642;2023-06-24T17:28:51;4.85;;;3.88;;
7247;SDS011;3665;51.034;13.642;2023-06-24T17:33:40;4.80;;;4.07;;
7247;SDS011;3665;51.034;13.642;2023-06-24T17:38:27;5.40;;;3.90;;
7247;SDS011;3665;51.034;13.642;2023-06-24T17:48:21;3.70;;;3.38;;
7247;SDS011;3665;51.034;13.642;2023-06-24T17:53:09;4.00;;;3.70;;
7247;SDS011;3665;51.034;13.642;2023-06-24T17:57:58;4.85;;;4.45;;
7247;SDS011;3665;51.034;13.642;2023-06-24T18:02:43;5.57;;;3.83;;
7247;SDS011;3665;51.034;13.642;2023-06-24T18:07:29;4.83;;;4.07;;
7247;SDS011;3665;51.034;13.642;2023-06-24T18:12:14;3.87;;;3.57;;
7247;SDS011;3665;51.034;13.642;2023-06-24T18:17:05;4.60;;;4.10;;
7247;SDS011;3665;51.034;13.642;2023-06-24T18:22:04;4.63;;;4.23;;
7247;SDS011;3665;51.034;13.642;2023-06-24T18:27:00;4.63;;;4.20;;
7247;SDS011;3665;51.034;13.642;2023-06-24T18:31:46;5.00;;;4.50;;
7247;SDS011;3665;51.034;13.642;2023-06-24T18:36:35;4.47;;;4.07;;
7247;SDS011;3665;51.034;13.642;2023-06-24T18:41:27;4.50;;;3.97;;
7247;SDS011;3665;51.034;13.642;2023-06-24T18:46:10;4.13;;;3.80;;
7247;SDS011;3665;51.034;13.642;2023-06-24T18:50:54;4.90;;;4.40;;
7247;SDS011;3665;51.034;13.642;2023-06-24T18:55:50;6.50;;;4.87;;
7247;SDS011;3665;51.034;13.642;2023-06-24T19:00:35;5.43;;;4.20;;
7247;SDS011;3665;51.034;13.642;2023-06-24T19:05:28;4.80;;;4.27;;
7247;SDS011;3665;51.034;13.642;2023-06-24T19:10:12;4.43;;;4.03;;
7247;SDS011;3665;51.034;13.642;2023-06-24T19:14:57;5.23;;;4.30;;
7247;SDS011;3665;51.034;13.642;2023-06-24T19:19:49;5.73;;;4.70;;
7247;SDS011;3665;51.034;13.642;2023-06-24T19:24:35;5.87;;;5.17;;
7247;SDS011;3665;51.034;13.642;2023-06-24T19:29:19;5.73;;;5.13;;
7247;SDS011;3665;51.034;13.642;2023-06-24T19:34:11;5.00;;;4.50;;
7247;SDS011;3665;51.034;13.642;2023-06-24T19:38:59;5.37;;;4.43;;
7247;SDS011;3665;51.034;13.642;2023-06-24T19:43:46;5.07;;;4.60;;
7247;SDS011;3665;51.034;13.642;2023-06-24T19:48:37;5.23;;;4.20;;
7247;SDS011;3665;51.034;13.642;2023-06-24T19:53:24;4.60;;;4.23;;
7247;SDS011;3665;51.034;13.642;2023-06-24T19:58:11;5.03;;;4.63;;
7247;SDS011;3665;51.034;13.642;2023-06-24T20:03:01;5.33;;;4.83;;
7247;SDS011;3665;51.034;13.642;2023-06-24T20:07:47;8.03;;;5.10;;
7247;SDS011;3665;51.034;13.642;2023-06-24T20:12:36;5.33;;;4.53;;
7247;SDS011;3665;51.034;13.642;2023-06-24T20:17:24;6.03;;;4.97;;
7247;SDS011;3665;51.034;13.642;2023-06-24T20:22:14;5.77;;;5.27;;
7247;SDS011;3665;51.034;13.642;2023-06-24T20:26:59;5.93;;;4.90;;
7247;SDS011;3665;51.034;13.642;2023-06-24T20:31:50;7.20;;;6.50;;
7247;SDS011;3665;51.034;13.642;2023-06-24T20:36:35;12.07;;;9.63;;
7247;SDS011;3665;51.034;13.642;2023-06-24T20:41:21;12.90;;;11.60;;
7247;SDS011;3665;51.034;13.642;2023-06-24T20:46:09;15.43;;;11.80;;
7247;SDS011;3665;51.034;13.642;2023-06-24T20:50:55;12.53;;;10.67;;
7247;SDS011;3665;51.034;13.642;2023-06-24T20:55:51;10.77;;;9.70;;
7247;SDS011;3665;51.034;13.642;2023-06-24T21:00:35;9.90;;;8.87;;
7247;SDS011;3665;51.034;13.642;2023-06-24T21:05:24;8.27;;;7.47;;
7247;SDS011;3665;51.034;13.642;2023-06-24T21:10:07;9.77;;;6.63;;
7247;SDS011;3665;51.034;13.642;2023-06-24T21:15:03;10.20;;;7.10;;
7247;SDS011;3665;51.034;13.642;2023-06-24T21:19:48;8.07;;;7.10;;
7247;SDS011;3665;51.034;13.642;2023-06-24T21:24:32;9.07;;;8.27;;
7247;SDS011;3665;51.034;13.642;2023-06-24T21:29:20;9.30;;;8.40;;
7247;SDS011;3665;51.034;13.642;2023-06-24T21:34:13;9.53;;;8.53;;
7247;SDS011;3665;51.034;13.642;2023-06-24T21:38:57;8.73;;;7.83;;
7247;SDS011;3665;51.034;13.642;2023-06-24T21:43:41;8.40;;;7.60;;
7247;SDS011;3665;51.034;13.642;2023-06-24T21:48:36;9.20;;;7.60;;
7247;SDS011;3665;51.034;13.642;2023-06-24T21:53:23;9.67;;;8.73;;
7247;SDS011;3665;51.034;13.642;2023-06-24T21:58:14;9.10;;;7.60;;
7247;SDS011;3665;51.034;13.642;2023-06-24T22:02:57;8.13;;;7.33;;
7247;SDS011;3665;51.034;13.642;2023-06-24T22:07:42;6.87;;;6.23;;
7247;SDS011;3665;51.034;13.642;2023-06-24T22:12:36;7.83;;;7.00;;
7247;SDS011;3665;51.034;13.642;2023-06-24T22:17:22;7.83;;;7.03;;
7247;SDS011;3665;51.034;13.642;2023-06-24T22:22:16;8.50;;;7.70;;
7247;SDS011;3665;51.034;13.642;2023-06-24T22:27:09;10.60;;;7.40;;
7247;SDS011;3665;51.034;13.642;2023-06-24T22:32:06;7.47;;;6.67;;
7247;SDS011;3665;51.034;13.642;2023-06-24T22:36:50;8.43;;;7.20;;
7247;SDS011;3665;51.034;13.642;2023-06-24T22:41:39;8.27;;;7.37;;
7247;SDS011;3665;51.034;13.642;2023-06-24T22:46:23;7.93;;;7.13;;
7247;SDS011;3665;51.034;13.642;2023-06-24T22:51:15;7.47;;;6.77;;
7247;SDS011;3665;51.034;13.642;2023-06-24T22:55:58;8.50;;;6.63;;
7247;SDS011;3665;51.034;13.642;2023-06-24T23:00:47;7.50;;;6.80;;
7247;SDS011;3665;51.034;13.642;2023-06-24T23:05:34;7.77;;;6.90;;
7247;SDS011;3665;51.034;13.642;2023-06-24T23:10:28;8.03;;;7.23;;
7247;SDS011;3665;51.034;13.642;2023-06-24T23:15:14;9.80;;;8.77;;
7247;SDS011;3665;51.034;13.642;2023-06-24T23:20:04;9.47;;;8.57;;
7247;SDS011;3665;51.034;13.642;2023-06-24T23:24:50;11.47;;;8.83;;
7247;SDS011;3665;51.034;13.642;2023-06-24T23:35:14;9.00;;;7.80;;
7247;SDS011;3665;51.034;13.642;2023-06-24T23:39:58;8.17;;;7.40;;
7247;SDS011;3665;51.034;13.642;2023-06-24T23:44:44;8.50;;;7.77;;
7247;SDS011;3665;51.034;13.642;2023-06-24T23:49:29;8.30;;;7.50;;
7247;SDS011;3665;51.034;13.642;2023-06-24T23:54:14;9.80;;;7.83;;
7247;SDS011;3665;51.034;13.642;2023-06-24T23:59:00;8.27;;;7.57;;
